sensor_id;sensor_type;location;lat;lon;timestamp;P1;durP1;ratioP1;P2;durP2;ratioP2
2934;SDS011;2462;51.456;7.248;2022-08-19T00:01:32;6.73;;;5.90;;
2934;SDS011;2462;51.456;7.248;2022-08-19T00:03:59;7.43;;;6.17;;
2934;SDS011;2462;51.456;7.248;2022-08-19T00:06:30;6.63;;;5.60;;
2934;SDS011;2462;51.456;7.248;2022-08-19T00:08:56;7.80;;;6.07;;
2934;SDS011;2462;51.456;7.248;2022-08-19T00:11:23;8.70;;;6.17;;
2934;SDS011;2462;51.456;7.248;2022-08-19T00:13:49;5.67;;;5.20;;
2934;SDS011;2462;51.456;7.248;2022-08-19T00:16:15;5.60;;;5.10;;
2934;SDS011;2462;51.456;7.248;2022-08-19T00:18:43;8.13;;;6.20;;
2934;SDS011;2462;51.456;7.248;2022-08-19T00:21:08;6.27;;;5.67;;
2934;SDS011;2462;51.456;7.248;2022-08-19T00:23:34;6.00;;;4.53;;
2934;SDS011;2462;51.456;7.248;2022-08-19T00:26:01;6.17;;;5.57;;
2934;SDS011;2462;51.456;7.248;2022-08-19T00:28:31;6.23;;;5.63;;
2934;SDS011;2462;51.456;7.248;2022-08-19T00:30:57;5.57;;;5.07;;
2934;SDS011;2462;51.456;7.248;2022-08-19T00:33:23;4.90;;;4.50;;
2934;SDS011;2462;51.456;7.248;2022-08-19T00:35:49;4.83;;;4.33;;
2934;SDS011;2462;51.456;7.248;2022-08-19T00:38:14;7.30;;;5.90;;
2934;SDS011;2462;51.456;7.248;2022-08-19T00:40:42;5.40;;;4.90;;
2934;SDS011;2462;51.456;7.248;2022-08-19T00:43:12;6.83;;;6.23;;
2934;SDS011;2462;51.456;7.248;2022-08-19T00:45:42;7.03;;;5.80;;
2934;SDS011;2462;51.456;7.248;2022-08-19T00:48:09;6.73;;;5.83;;
2934;SDS011;2462;51.456;7.248;2022-08-19T00:50:35;6.57;;;5.97;;
2934;SDS011;2462;51.456;7.248;2022-08-19T00:53:02;5.93;;;5.40;;
2934;SDS011;2462;51.456;7.248;2022-08-19T00:55:43;6.07;;;5.50;;
2934;SDS011;2462;51.456;7.248;2022-08-19T00:58:12;9.43;;;5.73;;
2934;SDS011;2462;51.456;7.248;2022-08-19T01:00:40;7.90;;;5.63;;
2934;SDS011;2462;51.456;7.248;2022-08-19T01:03:07;6.73;;;6.03;;
2934;SDS011;2462;51.456;7.248;2022-08-19T01:05:34;5.83;;;5.23;;
2934;SDS011;2462;51.456;7.248;2022-08-19T01:08:02;5.73;;;5.17;;
2934;SDS011;2462;51.456;7.248;2022-08-19T01:10:31;8.13;;;5.73;;
2934;SDS011;2462;51.456;7.248;2022-08-19T01:13:00;6.93;;;4.93;;
2934;SDS011;2462;51.456;7.248;2022-08-19T01:15:29;6.60;;;5.90;;
2934;SDS011;2462;51.456;7.248;2022-08-19T01:17:57;5.63;;;5.13;;
2934;SDS011;2462;51.456;7.248;2022-08-19T01:20:26;6.37;;;5.70;;
2934;SDS011;2462;51.456;7.248;2022-08-19T01:22:53;5.93;;;5.33;;
2934;SDS011;2462;51.456;7.248;2022-08-19T01:25:22;7.43;;;5.70;;
2934;SDS011;2462;51.456;7.248;2022-08-19T01:28:01;6.80;;;6.10;;
2934;SDS011;2462;51.456;7.248;2022-08-19T01:30:31;6.93;;;6.33;;
2934;SDS011;2462;51.456;7.248;2022-08-19T01:32:59;5.73;;;5.23;;
2934;SDS011;2462;51.456;7.248;2022-08-19T01:35:26;6.93;;;6.07;;
2934;SDS011;2462;51.456;7.248;2022-08-19T01:37:55;5.63;;;5.13;;
2934;SDS011;2462;51.456;7.248;2022-08-19T01:40:24;6.33;;;5.83;;
2934;SDS011;2462;51.456;7.248;2022-08-19T01:42:54;5.97;;;5.47;;
2934;SDS011;2462;51.456;7.248;2022-08-19T01:45:20;6.27;;;5.67;;
2934;SDS011;2462;51.456;7.248;2022-08-19T01:47:48;9.30;;;6.00;;
2934;SDS011;2462;51.456;7.248;2022-08-19T01:50:14;6.17;;;5.67;;
2934;SDS011;2462;51.456;7.248;2022-08-19T01:52:41;6.57;;;5.87;;
2934;SDS011;2462;51.456;7.248;2022-08-19T01:55:10;6.00;;;5.40;;
2934;SDS011;2462;51.456;7.248;2022-08-19T01:57:40;6.20;;;5.70;;
2934;SDS011;2462;51.456;7.248;2022-08-19T02:00:10;6.70;;;6.10;;
2934;SDS011;2462;51.456;7.248;2022-08-19T02:02:40;7.80;;;6.67;;
2934;SDS011;2462;51.456;7.248;2022-08-19T02:05:06;9.13;;;5.90;;
2934;SDS011;2462;51.456;7.248;2022-08-19T02:07:33;6.40;;;5.90;;
2934;SDS011;2462;51.456;7.248;2022-08-19T02:10:02;6.20;;;5.63;;
2934;SDS011;2462;51.456;7.248;2022-08-19T02:12:29;6.67;;;6.07;;
2934;SDS011;2462;51.456;7.248;2022-08-19T02:14:55;7.37;;;6.10;;
2934;SDS011;2462;51.456;7.248;2022-08-19T02:17:20;6.60;;;5.73;;
2934;SDS011;2462;51.456;7.248;2022-08-19T02:19:46;6.70;;;6.07;;
2934;SDS011;2462;51.456;7.248;2022-08-19T02:22:13;6.30;;;5.70;;
2934;SDS011;2462;51.456;7.248;2022-08-19T02:24:39;8.37;;;6.67;;
2934;SDS011;2462;51.456;7.248;2022-08-19T02:27:05;6.83;;;6.13;;
2934;SDS011;2462;51.456;7.248;2022-08-19T02:29:31;7.40;;;6.70;;
2934;SDS011;2462;51.456;7.248;2022-08-19T02:31:56;6.67;;;6.10;;
2934;SDS011;2462;51.456;7.248;2022-08-19T02:34:23;6.30;;;5.80;;
2934;SDS011;2462;51.456;7.248;2022-08-19T02:36:49;7.03;;;6.03;;
2934;SDS011;2462;51.456;7.248;2022-08-19T02:39:16;6.53;;;5.93;;
2934;SDS011;2462;51.456;7.248;2022-08-19T02:41:41;6.33;;;5.73;;
2934;SDS011;2462;51.456;7.248;2022-08-19T02:44:07;7.17;;;6.10;;
2934;SDS011;2462;51.456;7.248;2022-08-19T02:46:32;6.97;;;6.27;;
2934;SDS011;2462;51.456;7.248;2022-08-19T02:49:03;6.50;;;5.90;;
2934;SDS011;2462;51.456;7.248;2022-08-19T02:51:34;5.97;;;5.40;;
2934;SDS011;2462;51.456;7.248;2022-08-19T02:54:02;9.30;;;6.30;;
2934;SDS011;2462;51.456;7.248;2022-08-19T02:56:28;7.37;;;6.67;;
2934;SDS011;2462;51.456;7.248;2022-08-19T02:58:55;6.10;;;5.53;;
2934;SDS011;2462;51.456;7.248;2022-08-19T03:01:23;8.83;;;5.97;;
2934;SDS011;2462;51.456;7.248;2022-08-19T03:03:51;8.63;;;6.63;;
2934;SDS011;2462;51.456;7.248;2022-08-19T03:06:17;7.03;;;6.33;;
2934;SDS011;2462;51.456;7.248;2022-08-19T03:08:44;6.80;;;6.17;;
2934;SDS011;2462;51.456;7.248;2022-08-19T03:11:21;8.80;;;6.80;;
2934;SDS011;2462;51.456;7.248;2022-08-19T03:13:51;7.23;;;6.63;;
2934;SDS011;2462;51.456;7.248;2022-08-19T03:16:19;8.07;;;7.30;;
2934;SDS011;2462;51.456;7.248;2022-08-19T03:18:47;8.63;;;7.83;;
2934;SDS011;2462;51.456;7.248;2022-08-19T03:21:20;7.77;;;6.97;;
2934;SDS011;2462;51.456;7.248;2022-08-19T03:23:47;9.27;;;8.37;;
2934;SDS011;2462;51.456;7.248;2022-08-19T03:26:13;9.10;;;8.20;;
2934;SDS011;2462;51.456;7.248;2022-08-19T03:28:42;10.40;;;9.10;;
2934;SDS011;2462;51.456;7.248;2022-08-19T03:31:13;9.23;;;8.33;;
2934;SDS011;2462;51.456;7.248;2022-08-19T03:33:39;19.93;;;9.40;;
2934;SDS011;2462;51.456;7.248;2022-08-19T03:38:42;9.20;;;8.30;;
2934;SDS011;2462;51.456;7.248;2022-08-19T03:41:14;9.73;;;8.83;;
2934;SDS011;2462;51.456;7.248;2022-08-19T03:43:43;10.00;;;8.77;;
2934;SDS011;2462;51.456;7.248;2022-08-19T03:46:15;8.97;;;8.07;;
2934;SDS011;2462;51.456;7.248;2022-08-19T03:48:45;8.30;;;7.50;;
2934;SDS011;2462;51.456;7.248;2022-08-19T03:51:16;8.60;;;7.80;;
2934;SDS011;2462;51.456;7.248;2022-08-19T03:53:44;10.77;;;8.00;;
2934;SDS011;2462;51.456;7.248;2022-08-19T03:56:10;8.43;;;7.40;;
2934;SDS011;2462;51.456;7.248;2022-08-19T03:58:37;9.43;;;8.27;;
2934;SDS011;2462;51.456;7.248;2022-08-19T04:01:09;9.83;;;7.90;;
2934;SDS011;2462;51.456;7.248;2022-08-19T04:03:37;10.40;;;9.10;;
2934;SDS011;2462;51.456;7.248;2022-08-19T04:06:17;14.70;;;8.57;;
2934;SDS011;2462;51.456;7.248;2022-08-19T04:08:46;9.83;;;8.83;;
2934;SDS011;2462;51.456;7.248;2022-08-19T04:11:14;11.17;;;7.80;;
2934;SDS011;2462;51.456;7.248;2022-08-19T04:13:41;11.13;;;9.00;;
2934;SDS011;2462;51.456;7.248;2022-08-19T04:16:08;10.57;;;8.23;;
2934;SDS011;2462;51.456;7.248;2022-08-19T04:18:35;9.40;;;8.07;;
2934;SDS011;2462;51.456;7.248;2022-08-19T04:21:01;10.53;;;8.90;;
2934;SDS011;2462;51.456;7.248;2022-08-19T04:23:27;9.37;;;8.47;;
2934;SDS011;2462;51.456;7.248;2022-08-19T04:25:55;9.90;;;8.90;;
2934;SDS011;2462;51.456;7.248;2022-08-19T04:28:21;9.10;;;8.20;;
2934;SDS011;2462;51.456;7.248;2022-08-19T04:30:50;9.00;;;8.10;;
2934;SDS011;2462;51.456;7.248;2022-08-19T04:33:19;9.67;;;8.70;;
2934;SDS011;2462;51.456;7.248;2022-08-19T04:35:47;8.10;;;7.40;;
2934;SDS011;2462;51.456;7.248;2022-08-19T04:38:18;8.67;;;7.80;;
2934;SDS011;2462;51.456;7.248;2022-08-19T04:40:48;10.70;;;9.10;;
2934;SDS011;2462;51.456;7.248;2022-08-19T04:43:34;9.43;;;8.40;;
2934;SDS011;2462;51.456;7.248;2022-08-19T04:46:07;10.57;;;9.53;;
2934;SDS011;2462;51.456;7.248;2022-08-19T04:48:38;15.63;;;11.17;;
2934;SDS011;2462;51.456;7.248;2022-08-19T04:51:09;14.00;;;12.07;;
2934;SDS011;2462;51.456;7.248;2022-08-19T04:53:37;13.00;;;11.70;;
2934;SDS011;2462;51.456;7.248;2022-08-19T04:56:05;11.27;;;10.00;;
2934;SDS011;2462;51.456;7.248;2022-08-19T04:58:37;14.60;;;11.77;;
2934;SDS011;2462;51.456;7.248;2022-08-19T05:01:04;13.03;;;11.63;;
2934;SDS011;2462;51.456;7.248;2022-08-19T05:03:29;12.47;;;10.20;;
2934;SDS011;2462;51.456;7.248;2022-08-19T05:06:03;12.50;;;10.57;;
2934;SDS011;2462;51.456;7.248;2022-08-19T05:08:34;13.30;;;11.80;;
2934;SDS011;2462;51.456;7.248;2022-08-19T05:11:16;13.17;;;11.77;;
2934;SDS011;2462;51.456;7.248;2022-08-19T05:13:53;15.60;;;12.57;;
2934;SDS011;2462;51.456;7.248;2022-08-19T05:16:19;16.33;;;12.10;;
2934;SDS011;2462;51.456;7.248;2022-08-19T05:18:46;13.80;;;11.33;;
2934;SDS011;2462;51.456;7.248;2022-08-19T05:21:31;12.53;;;11.17;;
2934;SDS011;2462;51.456;7.248;2022-08-19T05:24:16;16.80;;;11.80;;
2934;SDS011;2462;51.456;7.248;2022-08-19T05:26:44;14.27;;;12.10;;
2934;SDS011;2462;51.456;7.248;2022-08-19T05:29:12;14.20;;;11.20;;
2934;SDS011;2462;51.456;7.248;2022-08-19T05:31:40;15.97;;;11.90;;
2934;SDS011;2462;51.456;7.248;2022-08-19T05:34:06;16.87;;;14.03;;
2934;SDS011;2462;51.456;7.248;2022-08-19T05:36:37;18.37;;;12.10;;
2934;SDS011;2462;51.456;7.248;2022-08-19T05:39:10;15.33;;;11.30;;
2934;SDS011;2462;51.456;7.248;2022-08-19T05:41:42;13.30;;;11.90;;
2934;SDS011;2462;51.456;7.248;2022-08-19T05:44:09;17.53;;;11.37;;
2934;SDS011;2462;51.456;7.248;2022-08-19T05:46:36;13.27;;;11.73;;
2934;SDS011;2462;51.456;7.248;2022-08-19T05:49:03;13.70;;;10.83;;
2934;SDS011;2462;51.456;7.248;2022-08-19T05:51:31;14.03;;;10.23;;
2934;SDS011;2462;51.456;7.248;2022-08-19T05:53:57;15.27;;;11.60;;
2934;SDS011;2462;51.456;7.248;2022-08-19T05:56:23;14.30;;;11.53;;
2934;SDS011;2462;51.456;7.248;2022-08-19T05:58:48;14.50;;;10.90;;
2934;SDS011;2462;51.456;7.248;2022-08-19T06:01:15;14.93;;;11.60;;
2934;SDS011;2462;51.456;7.248;2022-08-19T06:03:43;14.30;;;11.37;;
2934;SDS011;2462;51.456;7.248;2022-08-19T06:06:10;17.43;;;11.70;;
2934;SDS011;2462;51.456;7.248;2022-08-19T06:08:37;14.10;;;10.60;;
2934;SDS011;2462;51.456;7.248;2022-08-19T06:11:16;11.17;;;9.67;;
2934;SDS011;2462;51.456;7.248;2022-08-19T06:13:45;11.93;;;10.13;;
2934;SDS011;2462;51.456;7.248;2022-08-19T06:16:16;13.57;;;10.73;;
2934;SDS011;2462;51.456;7.248;2022-08-19T06:18:47;11.80;;;10.43;;
2934;SDS011;2462;51.456;7.248;2022-08-19T06:21:23;12.17;;;10.87;;
2934;SDS011;2462;51.456;7.248;2022-08-19T06:23:50;11.03;;;9.60;;
2934;SDS011;2462;51.456;7.248;2022-08-19T06:26:17;15.40;;;10.10;;
2934;SDS011;2462;51.456;7.248;2022-08-19T06:28:45;11.70;;;9.50;;
2934;SDS011;2462;51.456;7.248;2022-08-19T06:31:13;11.13;;;9.63;;
2934;SDS011;2462;51.456;7.248;2022-08-19T06:33:40;12.87;;;10.83;;
2934;SDS011;2462;51.456;7.248;2022-08-19T06:36:06;11.00;;;9.63;;
2934;SDS011;2462;51.456;7.248;2022-08-19T06:38:32;12.07;;;10.40;;
2934;SDS011;2462;51.456;7.248;2022-08-19T06:41:01;12.73;;;11.43;;
2934;SDS011;2462;51.456;7.248;2022-08-19T06:43:30;13.77;;;10.90;;
2934;SDS011;2462;51.456;7.248;2022-08-19T06:45:56;13.27;;;10.90;;
2934;SDS011;2462;51.456;7.248;2022-08-19T06:48:21;15.50;;;12.23;;
2934;SDS011;2462;51.456;7.248;2022-08-19T06:50:47;15.17;;;11.50;;
2934;SDS011;2462;51.456;7.248;2022-08-19T06:53:14;16.07;;;13.90;;
2934;SDS011;2462;51.456;7.248;2022-08-19T06:55:40;19.07;;;13.60;;
2934;SDS011;2462;51.456;7.248;2022-08-19T06:58:05;15.53;;;12.37;;
2934;SDS011;2462;51.456;7.248;2022-08-19T07:00:31;17.77;;;13.20;;
2934;SDS011;2462;51.456;7.248;2022-08-19T07:02:57;19.70;;;13.73;;
2934;SDS011;2462;51.456;7.248;2022-08-19T07:05:23;16.67;;;13.13;;
2934;SDS011;2462;51.456;7.248;2022-08-19T07:07:51;15.00;;;12.70;;
2934;SDS011;2462;51.456;7.248;2022-08-19T07:10:16;18.83;;;11.33;;
2934;SDS011;2462;51.456;7.248;2022-08-19T07:12:42;14.87;;;11.50;;
2934;SDS011;2462;51.456;7.248;2022-08-19T07:15:08;20.47;;;12.93;;
2934;SDS011;2462;51.456;7.248;2022-08-19T07:17:35;19.40;;;12.03;;
2934;SDS011;2462;51.456;7.248;2022-08-19T07:20:04;19.30;;;14.70;;
2934;SDS011;2462;51.456;7.248;2022-08-19T07:22:32;17.00;;;14.60;;
2934;SDS011;2462;51.456;7.248;2022-08-19T07:24:59;18.87;;;13.20;;
2934;SDS011;2462;51.456;7.248;2022-08-19T07:27:24;22.00;;;15.70;;
2934;SDS011;2462;51.456;7.248;2022-08-19T07:29:50;18.40;;;13.83;;
2934;SDS011;2462;51.456;7.248;2022-08-19T07:32:17;18.63;;;14.13;;
2934;SDS011;2462;51.456;7.248;2022-08-19T07:34:42;16.70;;;13.80;;
2934;SDS011;2462;51.456;7.248;2022-08-19T07:37:08;15.23;;;11.73;;
2934;SDS011;2462;51.456;7.248;2022-08-19T07:39:35;21.47;;;11.33;;
2934;SDS011;2462;51.456;7.248;2022-08-19T07:42:03;13.93;;;11.70;;
2934;SDS011;2462;51.456;7.248;2022-08-19T07:44:31;14.90;;;12.50;;
2934;SDS011;2462;51.456;7.248;2022-08-19T07:46:58;14.90;;;11.47;;
2934;SDS011;2462;51.456;7.248;2022-08-19T07:49:25;13.10;;;9.80;;
2934;SDS011;2462;51.456;7.248;2022-08-19T07:51:56;15.73;;;11.00;;
2934;SDS011;2462;51.456;7.248;2022-08-19T07:54:24;13.43;;;10.13;;
2934;SDS011;2462;51.456;7.248;2022-08-19T07:56:52;10.73;;;9.63;;
2934;SDS011;2462;51.456;7.248;2022-08-19T07:59:18;14.67;;;10.87;;
2934;SDS011;2462;51.456;7.248;2022-08-19T08:01:45;14.37;;;9.37;;
2934;SDS011;2462;51.456;7.248;2022-08-19T08:04:12;12.53;;;10.47;;
2934;SDS011;2462;51.456;7.248;2022-08-19T08:06:57;16.80;;;11.07;;
2934;SDS011;2462;51.456;7.248;2022-08-19T08:09:42;20.60;;;12.10;;
2934;SDS011;2462;51.456;7.248;2022-08-19T08:12:10;16.40;;;11.67;;
2934;SDS011;2462;51.456;7.248;2022-08-19T08:14:41;16.37;;;12.50;;
2934;SDS011;2462;51.456;7.248;2022-08-19T08:17:10;15.90;;;11.67;;
2934;SDS011;2462;51.456;7.248;2022-08-19T08:19:37;14.23;;;10.23;;
2934;SDS011;2462;51.456;7.248;2022-08-19T08:22:03;15.03;;;12.07;;
2934;SDS011;2462;51.456;7.248;2022-08-19T08:24:31;14.13;;;12.57;;
2934;SDS011;2462;51.456;7.248;2022-08-19T08:26:58;18.57;;;12.73;;
2934;SDS011;2462;51.456;7.248;2022-08-19T08:29:25;15.90;;;13.37;;
2934;SDS011;2462;51.456;7.248;2022-08-19T08:31:52;15.03;;;12.60;;
2934;SDS011;2462;51.456;7.248;2022-08-19T08:34:18;16.40;;;12.13;;
2934;SDS011;2462;51.456;7.248;2022-08-19T08:36:45;15.17;;;12.80;;
2934;SDS011;2462;51.456;7.248;2022-08-19T08:39:12;19.67;;;13.80;;
2934;SDS011;2462;51.456;7.248;2022-08-19T08:44:19;19.60;;;16.07;;
2934;SDS011;2462;51.456;7.248;2022-08-19T08:46:49;21.13;;;15.43;;
2934;SDS011;2462;51.456;7.248;2022-08-19T08:52:00;20.27;;;16.30;;
2934;SDS011;2462;51.456;7.248;2022-08-19T08:54:47;16.57;;;14.77;;
2934;SDS011;2462;51.456;7.248;2022-08-19T08:57:20;19.90;;;16.33;;
2934;SDS011;2462;51.456;7.248;2022-08-19T08:59:57;20.00;;;15.40;;
2934;SDS011;2462;51.456;7.248;2022-08-19T09:02:30;20.50;;;16.17;;
2934;SDS011;2462;51.456;7.248;2022-08-19T09:04:56;21.47;;;17.23;;
2934;SDS011;2462;51.456;7.248;2022-08-19T09:09:52;21.73;;;16.63;;
2934;SDS011;2462;51.456;7.248;2022-08-19T09:12:27;19.40;;;16.87;;
2934;SDS011;2462;51.456;7.248;2022-08-19T09:15:30;24.17;;;18.80;;
2934;SDS011;2462;51.456;7.248;2022-08-19T09:18:00;24.30;;;19.17;;
2934;SDS011;2462;51.456;7.248;2022-08-19T09:20:27;32.33;;;19.10;;
2934;SDS011;2462;51.456;7.248;2022-08-19T09:22:52;23.60;;;19.10;;
2934;SDS011;2462;51.456;7.248;2022-08-19T09:25:19;28.00;;;21.33;;
2934;SDS011;2462;51.456;7.248;2022-08-19T09:27:48;25.20;;;22.33;;
2934;SDS011;2462;51.456;7.248;2022-08-19T09:30:19;27.47;;;22.73;;
2934;SDS011;2462;51.456;7.248;2022-08-19T09:32:46;31.10;;;24.60;;
2934;SDS011;2462;51.456;7.248;2022-08-19T09:35:13;26.43;;;21.23;;
2934;SDS011;2462;51.456;7.248;2022-08-19T09:37:40;25.33;;;20.43;;
2934;SDS011;2462;51.456;7.248;2022-08-19T09:40:07;28.43;;;22.27;;
2934;SDS011;2462;51.456;7.248;2022-08-19T09:42:33;22.77;;;19.63;;
2934;SDS011;2462;51.456;7.248;2022-08-19T09:44:59;26.30;;;21.60;;
2934;SDS011;2462;51.456;7.248;2022-08-19T09:47:25;23.47;;;19.77;;
2934;SDS011;2462;51.456;7.248;2022-08-19T09:49:50;24.30;;;20.87;;
2934;SDS011;2462;51.456;7.248;2022-08-19T09:52:16;24.80;;;22.17;;
2934;SDS011;2462;51.456;7.248;2022-08-19T09:54:42;25.63;;;20.20;;
2934;SDS011;2462;51.456;7.248;2022-08-19T09:57:08;31.07;;;22.97;;
2934;SDS011;2462;51.456;7.248;2022-08-19T09:59:34;26.97;;;23.57;;
2934;SDS011;2462;51.456;7.248;2022-08-19T10:01:59;30.93;;;21.87;;
2934;SDS011;2462;51.456;7.248;2022-08-19T10:04:25;22.83;;;20.43;;
2934;SDS011;2462;51.456;7.248;2022-08-19T10:07:13;25.20;;;19.90;;
2934;SDS011;2462;51.456;7.248;2022-08-19T10:09:39;22.93;;;19.20;;
2934;SDS011;2462;51.456;7.248;2022-08-19T10:12:06;21.50;;;19.30;;
2934;SDS011;2462;51.456;7.248;2022-08-19T10:14:33;21.70;;;18.73;;
2934;SDS011;2462;51.456;7.248;2022-08-19T10:16:58;20.87;;;16.67;;
2934;SDS011;2462;51.456;7.248;2022-08-19T10:19:27;17.70;;;15.80;;
2934;SDS011;2462;51.456;7.248;2022-08-19T10:21:57;22.50;;;13.83;;
2934;SDS011;2462;51.456;7.248;2022-08-19T10:24:22;17.70;;;14.17;;
2934;SDS011;2462;51.456;7.248;2022-08-19T10:26:50;18.07;;;15.70;;
2934;SDS011;2462;51.456;7.248;2022-08-19T10:29:16;23.47;;;14.47;;
2934;SDS011;2462;51.456;7.248;2022-08-19T10:31:41;17.67;;;14.60;;
2934;SDS011;2462;51.456;7.248;2022-08-19T10:34:07;14.77;;;13.17;;
2934;SDS011;2462;51.456;7.248;2022-08-19T10:36:35;16.23;;;14.50;;
2934;SDS011;2462;51.456;7.248;2022-08-19T10:39:03;14.50;;;12.97;;
2934;SDS011;2462;51.456;7.248;2022-08-19T10:41:35;13.97;;;12.23;;
2934;SDS011;2462;51.456;7.248;2022-08-19T10:44:04;14.40;;;13.00;;
2934;SDS011;2462;51.456;7.248;2022-08-19T10:46:32;15.07;;;13.40;;
2934;SDS011;2462;51.456;7.248;2022-08-19T10:49:01;15.60;;;13.30;;
2934;SDS011;2462;51.456;7.248;2022-08-19T10:51:28;13.83;;;11.50;;
2934;SDS011;2462;51.456;7.248;2022-08-19T10:54:12;14.73;;;12.50;;
2934;SDS011;2462;51.456;7.248;2022-08-19T10:56:38;14.70;;;12.67;;
2934;SDS011;2462;51.456;7.248;2022-08-19T10:59:16;14.63;;;13.23;;
2934;SDS011;2462;51.456;7.248;2022-08-19T11:01:47;18.20;;;14.80;;
2934;SDS011;2462;51.456;7.248;2022-08-19T11:04:13;14.70;;;13.30;;
2934;SDS011;2462;51.456;7.248;2022-08-19T11:06:42;16.07;;;14.43;;
2934;SDS011;2462;51.456;7.248;2022-08-19T11:09:10;15.67;;;13.90;;
2934;SDS011;2462;51.456;7.248;2022-08-19T11:11:36;15.57;;;13.97;;
2934;SDS011;2462;51.456;7.248;2022-08-19T11:14:05;14.00;;;12.47;;
2934;SDS011;2462;51.456;7.248;2022-08-19T11:16:32;14.80;;;12.90;;
2934;SDS011;2462;51.456;7.248;2022-08-19T11:18:58;14.70;;;13.20;;
2934;SDS011;2462;51.456;7.248;2022-08-19T11:21:25;17.13;;;13.50;;
2934;SDS011;2462;51.456;7.248;2022-08-19T11:23:54;17.03;;;14.00;;
2934;SDS011;2462;51.456;7.248;2022-08-19T11:26:21;16.20;;;14.20;;
2934;SDS011;2462;51.456;7.248;2022-08-19T11:28:48;16.53;;;15.00;;
2934;SDS011;2462;51.456;7.248;2022-08-19T11:31:16;17.00;;;15.30;;
2934;SDS011;2462;51.456;7.248;2022-08-19T11:33:43;17.17;;;15.47;;
2934;SDS011;2462;51.456;7.248;2022-08-19T11:36:10;18.17;;;16.37;;
2934;SDS011;2462;51.456;7.248;2022-08-19T11:38:36;15.87;;;14.23;;
2934;SDS011;2462;51.456;7.248;2022-08-19T11:41:03;16.30;;;14.70;;
2934;SDS011;2462;51.456;7.248;2022-08-19T11:43:32;13.83;;;12.50;;
2934;SDS011;2462;51.456;7.248;2022-08-19T11:46:09;17.37;;;13.30;;
2934;SDS011;2462;51.456;7.248;2022-08-19T11:48:36;16.17;;;14.50;;
2934;SDS011;2462;51.456;7.248;2022-08-19T11:51:04;15.30;;;13.80;;
2934;SDS011;2462;51.456;7.248;2022-08-19T11:53:33;15.40;;;13.90;;
2934;SDS011;2462;51.456;7.248;2022-08-19T11:56:00;15.60;;;14.00;;
2934;SDS011;2462;51.456;7.248;2022-08-19T11:58:27;13.70;;;12.30;;
2934;SDS011;2462;51.456;7.248;2022-08-19T12:00:54;13.80;;;12.20;;
2934;SDS011;2462;51.456;7.248;2022-08-19T12:03:19;12.60;;;11.40;;
2934;SDS011;2462;51.456;7.248;2022-08-19T12:05:45;13.97;;;12.60;;
2934;SDS011;2462;51.456;7.248;2022-08-19T12:08:11;12.87;;;11.57;;
2934;SDS011;2462;51.456;7.248;2022-08-19T12:10:38;13.17;;;11.87;;
2934;SDS011;2462;51.456;7.248;2022-08-19T12:13:04;13.20;;;11.83;;
2934;SDS011;2462;51.456;7.248;2022-08-19T12:15:34;13.43;;;11.90;;
2934;SDS011;2462;51.456;7.248;2022-08-19T12:18:05;14.00;;;11.67;;
2934;SDS011;2462;51.456;7.248;2022-08-19T12:20:33;11.80;;;10.60;;
2934;SDS011;2462;51.456;7.248;2022-08-19T12:23:00;11.30;;;10.23;;
2934;SDS011;2462;51.456;7.248;2022-08-19T12:25:26;10.50;;;9.40;;
2934;SDS011;2462;51.456;7.248;2022-08-19T12:27:52;10.97;;;9.93;;
2934;SDS011;2462;51.456;7.248;2022-08-19T12:30:17;12.00;;;10.90;;
2934;SDS011;2462;51.456;7.248;2022-08-19T12:32:43;10.80;;;9.70;;
2934;SDS011;2462;51.456;7.248;2022-08-19T12:35:08;11.17;;;10.07;;
2934;SDS011;2462;51.456;7.248;2022-08-19T12:37:36;11.07;;;9.93;;
2934;SDS011;2462;51.456;7.248;2022-08-19T12:40:02;11.40;;;10.07;;
2934;SDS011;2462;51.456;7.248;2022-08-19T12:42:28;16.40;;;10.00;;
2934;SDS011;2462;51.456;7.248;2022-08-19T12:44:55;10.93;;;9.20;;
2934;SDS011;2462;51.456;7.248;2022-08-19T12:47:20;9.37;;;8.43;;
2934;SDS011;2462;51.456;7.248;2022-08-19T12:49:46;10.37;;;7.37;;
2934;SDS011;2462;51.456;7.248;2022-08-19T12:52:13;8.83;;;7.93;;
2934;SDS011;2462;51.456;7.248;2022-08-19T12:54:41;9.40;;;8.53;;
2934;SDS011;2462;51.456;7.248;2022-08-19T12:57:08;11.00;;;9.63;;
2934;SDS011;2462;51.456;7.248;2022-08-19T12:59:35;9.50;;;7.73;;
2934;SDS011;2462;51.456;7.248;2022-08-19T13:02:03;11.10;;;7.77;;
2934;SDS011;2462;51.456;7.248;2022-08-19T13:04:31;8.83;;;8.03;;
2934;SDS011;2462;51.456;7.248;2022-08-19T13:06:57;7.60;;;6.70;;
2934;SDS011;2462;51.456;7.248;2022-08-19T13:09:23;8.20;;;6.27;;
2934;SDS011;2462;51.456;7.248;2022-08-19T13:11:49;7.93;;;7.13;;
2934;SDS011;2462;51.456;7.248;2022-08-19T13:14:14;8.13;;;7.33;;
2934;SDS011;2462;51.456;7.248;2022-08-19T13:16:40;8.23;;;7.40;;
2934;SDS011;2462;51.456;7.248;2022-08-19T13:19:06;7.97;;;7.27;;
2934;SDS011;2462;51.456;7.248;2022-08-19T13:21:32;8.27;;;6.90;;
2934;SDS011;2462;51.456;7.248;2022-08-19T13:23:57;7.23;;;6.63;;
2934;SDS011;2462;51.456;7.248;2022-08-19T13:26:23;11.10;;;7.27;;
2934;SDS011;2462;51.456;7.248;2022-08-19T13:28:49;7.60;;;6.53;;
2934;SDS011;2462;51.456;7.248;2022-08-19T13:31:39;7.63;;;6.93;;
2934;SDS011;2462;51.456;7.248;2022-08-19T13:34:34;6.87;;;6.20;;
2934;SDS011;2462;51.456;7.248;2022-08-19T13:37:00;8.30;;;7.33;;
2934;SDS011;2462;51.456;7.248;2022-08-19T13:39:28;6.83;;;6.23;;
2934;SDS011;2462;51.456;7.248;2022-08-19T13:41:54;9.57;;;6.33;;
2934;SDS011;2462;51.456;7.248;2022-08-19T13:44:20;7.50;;;6.80;;
2934;SDS011;2462;51.456;7.248;2022-08-19T13:46:46;7.37;;;6.50;;
2934;SDS011;2462;51.456;7.248;2022-08-19T13:49:14;6.77;;;6.17;;
2934;SDS011;2462;51.456;7.248;2022-08-19T13:51:40;6.67;;;6.00;;
2934;SDS011;2462;51.456;7.248;2022-08-19T13:54:07;7.13;;;6.40;;
2934;SDS011;2462;51.456;7.248;2022-08-19T13:56:34;7.00;;;5.90;;
2934;SDS011;2462;51.456;7.248;2022-08-19T13:59:00;6.30;;;5.80;;
2934;SDS011;2462;51.456;7.248;2022-08-19T14:01:26;6.80;;;6.20;;
2934;SDS011;2462;51.456;7.248;2022-08-19T14:03:51;7.13;;;6.27;;
2934;SDS011;2462;51.456;7.248;2022-08-19T14:06:17;8.93;;;5.93;;
2934;SDS011;2462;51.456;7.248;2022-08-19T14:08:43;6.90;;;5.23;;
2934;SDS011;2462;51.456;7.248;2022-08-19T14:11:10;6.93;;;5.50;;
2934;SDS011;2462;51.456;7.248;2022-08-19T14:13:36;6.40;;;5.70;;
2934;SDS011;2462;51.456;7.248;2022-08-19T14:16:05;6.17;;;5.67;;
2934;SDS011;2462;51.456;7.248;2022-08-19T14:18:33;6.10;;;5.53;;
2934;SDS011;2462;51.456;7.248;2022-08-19T14:20:59;6.33;;;5.70;;
2934;SDS011;2462;51.456;7.248;2022-08-19T14:23:24;7.87;;;5.10;;
2934;SDS011;2462;51.456;7.248;2022-08-19T14:25:50;7.07;;;6.07;;
2934;SDS011;2462;51.456;7.248;2022-08-19T14:28:15;5.97;;;5.37;;
2934;SDS011;2462;51.456;7.248;2022-08-19T14:30:41;6.93;;;4.97;;
2934;SDS011;2462;51.456;7.248;2022-08-19T14:33:09;6.90;;;6.20;;
2934;SDS011;2462;51.456;7.248;2022-08-19T14:35:35;11.23;;;6.30;;
2934;SDS011;2462;51.456;7.248;2022-08-19T14:38:02;5.53;;;5.03;;
2934;SDS011;2462;51.456;7.248;2022-08-19T14:40:30;6.13;;;5.47;;
2934;SDS011;2462;51.456;7.248;2022-08-19T14:42:56;6.83;;;5.13;;
2934;SDS011;2462;51.456;7.248;2022-08-19T14:45:26;7.30;;;5.30;;
2934;SDS011;2462;51.456;7.248;2022-08-19T14:47:53;7.80;;;5.40;;
2934;SDS011;2462;51.456;7.248;2022-08-19T14:50:19;5.73;;;5.10;;
2934;SDS011;2462;51.456;7.248;2022-08-19T14:52:45;5.60;;;5.10;;
2934;SDS011;2462;51.456;7.248;2022-08-19T14:55:13;6.93;;;5.73;;
2934;SDS011;2462;51.456;7.248;2022-08-19T14:57:40;6.37;;;5.43;;
2934;SDS011;2462;51.456;7.248;2022-08-19T15:00:07;5.60;;;5.10;;
2934;SDS011;2462;51.456;7.248;2022-08-19T15:02:37;6.57;;;5.40;;
2934;SDS011;2462;51.456;7.248;2022-08-19T15:05:03;7.40;;;5.67;;
2934;SDS011;2462;51.456;7.248;2022-08-19T15:07:29;5.90;;;4.93;;
2934;SDS011;2462;51.456;7.248;2022-08-19T15:09:54;6.73;;;5.00;;
2934;SDS011;2462;51.456;7.248;2022-08-19T15:12:20;7.60;;;5.43;;
2934;SDS011;2462;51.456;7.248;2022-08-19T15:14:47;8.00;;;5.87;;
2934;SDS011;2462;51.456;7.248;2022-08-19T15:17:15;6.40;;;5.80;;